Time;durP1;ratioP1;P1;durP2;ratioP2;P2;SDS_P1;SDS_P2;PMS_P1;PMS_P2;Temp;Humidity;BMP_temperature;BMP_pressure;BME280_temperature;BME280_humidity;BME280_pressure;Samples;Min_cycle;Max_cycle;Signal;HPM_P1;HPM_P2
2021/08/11 00:04:04;;;;;;;;;;;;;;;20.19;63.78;100391.16;10364002;28;20009;-56
2021/08/11 00:09:06;;;;;;;;;;;;;;;20.18;64.07;100394.91;10364925;28;20317;-57
2021/08/11 00:14:07;;;;;;;;;;;;;;;20.14;64.30;100386.31;10360995;28;19993;-57
2021/08/11 00:19:09;;;;;;;;;;;;;;;20.07;64.36;100391.63;10357865;28;19960;-57
2021/08/11 00:24:10;;;;;;;;;;;;;;;20.04;64.72;100410.03;10356365;28;19976;-56
2021/08/11 00:29:11;;;;;;;;;;;;;;;19.98;65.07;100395.38;10351371;28;19957;-56
2021/08/11 00:34:13;;;;;;;;;;;;;;;19.97;64.96;100396.44;10366972;28;20390;-56
2021/08/11 00:39:14;;;;;;;;;;;;;;;19.92;65.22;100402.38;10357949;28;19929;-58
2021/08/11 00:44:15;;;;;;;;;;;;;;;19.91;65.37;100406.09;10357165;28;19975;-56
2021/08/11 00:49:17;;;;;;;;;;;;;;;19.89;65.51;100404.59;10364372;28;20718;-57
2021/08/11 00:54:18;;;;;;;;;;;;;;;19.84;65.49;100394.31;10357115;28;19929;-56
2021/08/11 00:59:21;;;;;;;;;;;;;;;19.85;65.58;100395.19;10358423;28;20660;-56
2021/08/11 01:04:23;;;;;;;;;;;;;;;19.80;65.69;100393.00;10357442;28;20422;-59
2021/08/11 01:09:24;;;;;;;;;;;;;;;19.76;65.75;100384.41;10355629;28;19972;-57
2021/08/11 01:14:25;;;;;;;;;;;;;;;19.77;65.95;100378.00;10349345;28;19957;-56
2021/08/11 01:19:27;;;;;;;;;;;;;;;19.74;66.21;100391.84;10349453;28;19998;-57
2021/08/11 01:24:31;;;;;;;;;;;;;;;19.70;66.32;100395.91;10359091;28;19929;-57
2021/08/11 01:29:48;;;;;;;;;;;;;;;19.67;66.49;100398.16;10368168;28;20350;-57
2021/08/11 01:34:51;;;;;;;;;;;;;;;19.62;66.69;100406.75;10357480;28;19971;-56
2021/08/11 01:39:55;;;;;;;;;;;;;;;19.52;67.16;100406.19;10375025;28;19925;-57
2021/08/11 01:45:11;;;;;;;;;;;;;;;19.53;67.22;100399.75;10367364;28;20028;-56
2021/08/11 01:50:13;;;;;;;;;;;;;;;19.51;67.23;100404.50;10347101;28;19972;-56
2021/08/11 01:55:14;;;;;;;;;;;;;;;19.43;67.37;100408.91;10367369;28;19953;-55
2021/08/11 02:00:16;;;;;;;;;;;;;;;19.39;67.62;100396.78;10366536;28;19949;-56
2021/08/11 02:05:19;;;;;;;;;;;;;;;19.38;67.84;100397.81;10362925;28;19933;-56
2021/08/11 02:10:20;;;;;;;;;;;;;;;19.34;67.91;100398.34;10372857;28;20019;-56
2021/08/11 02:15:22;;;;;;;;;;;;;;;19.30;68.26;100402.41;10364181;28;20016;-55
2021/08/11 02:20:23;;;;;;;;;;;;;;;19.25;68.38;100390.28;10349007;28;19977;-55
2021/08/11 02:25:25;;;;;;;;;;;;;;;19.23;68.50;100399.56;10371040;28;19933;-54
2021/08/11 02:30:30;;;;;;;;;;;;;;;19.22;68.51;100393.34;10366740;28;19929;-55
2021/08/11 02:35:40;;;;;;;;;;;;;;;19.21;68.29;100401.63;10365427;28;19956;-56
2021/08/11 02:40:46;;;;;;;;;;;;;;;19.19;68.40;100398.25;10356248;28;19964;-56
2021/08/11 02:45:59;;;;;;;;;;;;;;;19.18;68.43;100410.06;10369711;28;20004;-56
2021/08/11 02:51:02;;;;;;;;;;;;;;;19.05;69.02;100400.69;10376293;28;19925;-55
2021/08/11 02:56:03;;;;;;;;;;;;;;;19.05;69.02;100406.09;10371010;28;20289;-54
2021/08/11 03:01:05;;;;;;;;;;;;;;;18.95;69.14;100408.13;10365255;28;20038;-56
2021/08/11 03:06:06;;;;;;;;;;;;;;;18.70;70.15;100408.19;10365151;28;19930;-56
2021/08/11 03:11:08;;;;;;;;;;;;;;;18.50;71.42;100406.91;10361435;28;19953;-55
2021/08/11 03:16:10;;;;;;;;;;;;;;;18.58;71.38;100408.72;10362026;28;19968;-55
2021/08/11 03:21:11;;;;;;;;;;;;;;;18.51;70.67;100413.94;10361736;28;20031;-57
2021/08/11 03:26:13;;;;;;;;;;;;;;;18.41;72.26;100413.31;10356786;28;19960;-56
2021/08/11 03:31:14;;;;;;;;;;;;;;;18.50;72.02;100412.28;10371662;28;19961;-57
2021/08/11 03:36:17;;;;;;;;;;;;;;;18.59;71.17;100416.66;10368298;28;19931;-57
2021/08/11 03:41:19;;;;;;;;;;;;;;;18.36;71.98;100421.91;10364040;28;20017;-59
2021/08/11 03:46:20;;;;;;;;;;;;;;;18.27;71.76;100418.38;10364134;28;20011;-57
2021/08/11 03:51:21;;;;;;;;;;;;;;;18.26;72.51;100415.88;10360287;28;19930;-57
2021/08/11 03:56:23;;;;;;;;;;;;;;;18.46;71.54;100424.41;10353678;28;19969;-57
2021/08/11 04:01:24;;;;;;;;;;;;;;;18.51;71.38;100409.41;10363676;28;20027;-56
2021/08/11 04:06:26;;;;;;;;;;;;;;;18.52;71.48;100415.66;10370452;28;19935;-56
2021/08/11 04:11:27;;;;;;;;;;;;;;;18.54;71.47;100425.25;10353780;28;20312;-57
2021/08/11 04:16:29;;;;;;;;;;;;;;;18.54;71.54;100427.94;10363387;28;20218;-56
2021/08/11 04:21:30;;;;;;;;;;;;;;;18.58;71.51;100435.69;10365003;28;20018;-57
2021/08/11 04:26:31;;;;;;;;;;;;;;;18.58;71.48;100436.53;10351462;28;19925;-57
2021/08/11 04:31:33;;;;;;;;;;;;;;;18.58;71.55;100441.06;10360139;28;19925;-57
2021/08/11 04:36:34;;;;;;;;;;;;;;;18.55;71.77;100448.50;10349154;28;19925;-56
2021/08/11 04:41:36;;;;;;;;;;;;;;;18.62;71.67;100456.75;10359288;28;19933;-57
2021/08/11 04:46:38;;;;;;;;;;;;;;;18.64;71.77;100451.16;10357825;28;19961;-59
2021/08/11 04:51:39;;;;;;;;;;;;;;;18.68;71.42;100445.25;10362060;28;19933;-57
2021/08/11 04:56:40;;;;;;;;;;;;;;;18.70;71.53;100450.47;10361192;28;20548;-56
2021/08/11 05:01:42;;;;;;;;;;;;;;;18.77;71.40;100450.66;10345799;28;21477;-57
2021/08/11 05:06:43;;;;;;;;;;;;;;;18.70;71.31;100451.31;10357128;28;19926;-58
2021/08/11 05:11:45;;;;;;;;;;;;;;;18.63;70.78;100461.13;10362565;28;19968;-55
2021/08/11 05:16:46;;;;;;;;;;;;;;;18.48;71.17;100484.38;10362596;28;20003;-56
2021/08/11 05:21:50;;;;;;;;;;;;;;;18.37;72.49;100482.88;10359180;28;19929;-56
2021/08/11 05:26:52;;;;;;;;;;;;;;;18.46;72.34;100489.09;10367655;28;20017;-56
2021/08/11 05:31:53;;;;;;;;;;;;;;;18.57;72.16;100485.22;10367470;28;19980;-57
2021/08/11 05:36:54;;;;;;;;;;;;;;;18.67;71.71;100486.72;10359814;28;19930;-55
2021/08/11 05:41:56;;;;;;;;;;;;;;;18.72;71.46;100488.91;10366120;28;20020;-56
2021/08/11 05:46:57;;;;;;;;;;;;;;;18.75;71.61;100493.97;10357392;28;19926;-56
2021/08/11 05:51:59;;;;;;;;;;;;;;;18.85;71.23;100502.72;10342923;28;20031;-56
2021/08/11 05:57:01;;;;;;;;;;;;;;;19.00;70.74;100504.72;10354930;28;19995;-57
2021/08/11 06:02:02;;;;;;;;;;;;;;;19.15;70.29;100505.69;10346891;28;19929;-50
2021/08/11 06:07:08;;;;;;;;;;;;;;;19.29;70.14;100504.13;10344013;28;20024;-50
2021/08/11 06:12:09;;;;;;;;;;;;;;;19.49;69.99;100503.72;10341423;28;22303;-50
2021/08/11 06:17:11;;;;;;;;;;;;;;;19.53;69.13;100505.03;10341339;28;20019;-50
2021/08/11 06:22:12;;;;;;;;;;;;;;;19.69;68.73;100504.13;10339686;28;19960;-56
2021/08/11 06:27:16;;;;;;;;;;;;;;;19.70;69.10;100501.25;10341366;28;19969;-57
2021/08/11 06:32:17;;;;;;;;;;;;;;;19.87;68.39;100507.41;10344007;28;21493;-57
2021/08/11 06:37:19;;;;;;;;;;;;;;;20.09;68.41;100503.03;10323614;28;20029;-57
2021/08/11 06:42:22;;;;;;;;;;;;;;;20.27;67.24;100496.50;10344098;28;25499;-57
2021/08/11 06:47:23;;;;;;;;;;;;;;;20.26;66.74;100492.13;10351689;28;20443;-56
2021/08/11 06:52:26;;;;;;;;;;;;;;;20.44;67.04;100505.31;10349649;28;20011;-57
2021/08/11 06:57:28;;;;;;;;;;;;;;;20.70;66.38;100490.56;10331872;28;20103;-55
2021/08/11 07:02:29;;;;;;;;;;;;;;;20.95;65.15;100488.47;10344801;28;20603;-56
2021/08/11 07:07:30;;;;;;;;;;;;;;;21.12;64.99;100489.09;10345641;28;19940;-57
2021/08/11 07:12:32;;;;;;;;;;;;;;;21.31;64.27;100482.28;10340875;28;19926;-56
2021/08/11 07:17:33;;;;;;;;;;;;;;;21.42;64.00;100481.78;10345235;28;20406;-59
2021/08/11 07:22:35;;;;;;;;;;;;;;;21.50;63.57;100489.84;10348999;28;20391;-56
2021/08/11 07:27:36;;;;;;;;;;;;;;;21.69;63.28;100493.84;10328996;28;19949;-56
2021/08/11 07:32:38;;;;;;;;;;;;;;;21.87;62.48;100500.69;10349206;28;20008;-57
2021/08/11 07:37:46;;;;;;;;;;;;;;;22.13;61.79;100502.84;10349428;28;20353;-56
2021/08/11 07:42:48;;;;;;;;;;;;;;;22.29;60.98;100506.31;10348762;28;20643;-57
2021/08/11 07:47:54;;;;;;;;;;;;;;;22.27;61.03;100503.81;10348087;28;20394;-59
2021/08/11 07:52:56;;;;;;;;;;;;;;;22.63;60.12;100518.34;10345258;28;19933;-57
2021/08/11 07:57:58;;;;;;;;;;;;;;;22.86;59.58;100518.91;10345891;28;19932;-58
2021/08/11 08:02:59;;;;;;;;;;;;;;;23.10;58.36;100519.53;10343938;28;20390;-57
2021/08/11 08:08:01;;;;;;;;;;;;;;;23.31;57.24;100521.31;10331693;28;20414;-56
2021/08/11 08:13:02;;;;;;;;;;;;;;;23.48;57.23;100521.84;10348981;28;20519;-57
2021/08/11 08:18:04;;;;;;;;;;;;;;;23.73;56.45;100524.00;10350516;28;20001;-58
2021/08/11 08:23:05;;;;;;;;;;;;;;;23.75;54.16;100511.03;10345956;28;19929;-56
2021/08/11 08:28:07;;;;;;;;;;;;;;;23.81;55.29;100515.69;10342125;28;19925;-58
2021/08/11 08:33:18;;;;;;;;;;;;;;;23.75;54.74;100519.19;10346371;28;19981;-58
2021/08/11 08:38:20;;;;;;;;;;;;;;;23.83;54.68;100519.03;10345609;28;19937;-57
2021/08/11 08:43:41;;;;;;;;;;;;;;;24.40;52.89;100513.31;10349657;28;19933;-57
2021/08/11 08:48:43;;;;;;;;;;;;;;;23.80;53.17;100508.56;10339054;28;20009;-58
2021/08/11 08:53:44;;;;;;;;;;;;;;;23.91;53.97;100510.69;10344180;28;19984;-57
2021/08/11 08:58:45;;;;;;;;;;;;;;;24.43;52.62;100515.63;10345292;28;20372;-56
2021/08/11 09:03:47;;;;;;;;;;;;;;;24.40;52.83;100516.03;10325087;28;20701;-57
2021/08/11 09:09:02;;;;;;;;;;;;;;;25.19;50.57;100508.84;10342849;28;20016;-58
2021/08/11 09:14:20;;;;;;;;;;;;;;;25.32;48.54;100511.56;10343651;28;20773;-57
2021/08/11 09:19:22;;;;;;;;;;;;;;;25.62;49.53;100508.28;10328861;28;19943;-57
2021/08/11 09:24:25;;;;;;;;;;;;;;;25.94;48.57;100511.91;10348861;28;19948;-57
2021/08/11 09:29:26;;;;;;;;;;;;;;;26.67;45.32;100517.94;10324280;28;19965;-56
2021/08/11 09:34:41;;;;;;;;;;;;;;;27.30;43.73;100510.56;10339961;28;20032;-55
2021/08/11 09:39:42;;;;;;;;;;;;;;;27.32;41.66;100511.16;10345823;28;19963;-56
2021/08/11 09:44:57;;;;;;;;;;;;;;;26.87;43.66;100514.19;10357949;28;19991;-55
2021/08/11 09:50:06;;;;;;;;;;;;;;;26.38;45.23;100508.50;10346447;28;20011;-56
2021/08/11 09:55:08;;;;;;;;;;;;;;;26.21;45.39;100502.72;10342543;28;20016;-56
2021/08/11 10:00:14;;;;;;;;;;;;;;;26.11;45.27;100498.59;10347325;28;19932;-56
2021/08/11 10:05:32;;;;;;;;;;;;;;;26.19;44.92;100507.59;10348400;28;20388;-57
2021/08/11 10:10:43;;;;;;;;;;;;;;;26.15;44.03;100504.44;10353541;28;19940;-57
2021/08/11 10:15:45;;;;;;;;;;;;;;;26.51;43.96;100507.53;10347178;28;19933;-57
2021/08/11 10:20:48;;;;;;;;;;;;;;;27.62;41.45;100502.22;10351413;28;19929;-57
2021/08/11 10:25:49;;;;;;;;;;;;;;;28.15;40.51;100498.75;10353234;28;20359;-58
2021/08/11 10:30:52;;;;;;;;;;;;;;;29.34;38.38;100501.56;10359567;28;19980;-57
2021/08/11 10:35:54;;;;;;;;;;;;;;;32.86;32.45;100499.56;10351320;28;19932;-56
2021/08/11 10:40:56;;;;;;;;;;;;;;;31.69;33.52;100500.16;10346683;28;20020;-57
2021/08/11 10:46:00;;;;;;;;;;;;;;;29.96;35.62;100492.63;10351215;28;19934;-58
2021/08/11 10:51:02;;;;;;;;;;;;;;;29.29;36.63;100487.72;10357871;28;19929;-58
2021/08/11 10:56:03;;;;;;;;;;;;;;;29.40;35.91;100486.88;10352863;28;19991;-57
2021/08/11 11:01:23;;;;;;;;;;;;;;;29.67;35.69;100480.84;10356170;28;20072;-57
2021/08/11 11:06:45;;;;;;;;;;;;;;;28.92;36.79;100480.63;10343404;28;19933;-57
2021/08/11 11:11:46;;;;;;;;;;;;;;;28.50;38.62;100473.34;10346976;28;19965;-56
2021/08/11 11:16:59;;;;;;;;;;;;;;;29.87;36.85;100473.00;10347371;28;19933;-57
2021/08/11 11:22:21;;;;;;;;;;;;;;;30.85;35.05;100478.19;10345675;28;20059;-55
2021/08/11 11:27:37;;;;;;;;;;;;;;;31.18;33.92;100472.84;10347218;28;19934;-56
2021/08/11 11:32:39;;;;;;;;;;;;;;;30.54;34.25;100471.41;10348068;28;19939;-56
2021/08/11 11:37:41;;;;;;;;;;;;;;;30.20;33.30;100456.81;10344406;28;19979;-56
2021/08/11 11:42:43;;;;;;;;;;;;;;;30.00;34.15;100460.06;10328837;28;20032;-60
2021/08/11 11:47:47;;;;;;;;;;;;;;;30.37;32.50;100460.41;10349441;28;19990;-56
2021/08/11 11:52:54;;;;;;;;;;;;;;;30.70;31.87;100463.38;10328511;28;20380;-54
2021/08/11 11:57:57;;;;;;;;;;;;;;;30.45;32.78;100461.94;10346144;28;19933;-55
2021/08/11 12:02:58;;;;;;;;;;;;;;;29.94;33.62;100457.22;10342474;28;20288;-56
2021/08/11 12:08:08;;;;;;;;;;;;;;;29.53;34.13;100456.44;10348834;28;20028;-55
2021/08/11 12:13:10;;;;;;;;;;;;;;;29.59;33.63;100447.22;10339969;28;20008;-56
2021/08/11 12:18:18;;;;;;;;;;;;;;;30.31;32.61;100445.75;10344067;28;19941;-56
2021/08/11 12:23:22;;;;;;;;;;;;;;;30.70;32.52;100446.91;10330332;28;19956;-56
2021/08/11 12:28:25;;;;;;;;;;;;;;;30.40;33.10;100437.09;10341462;28;20012;-57
2021/08/11 12:33:27;;;;;;;;;;;;;;;30.06;33.25;100428.88;10345532;28;19983;-57
2021/08/11 12:38:30;;;;;;;;;;;;;;;29.85;33.88;100423.03;10345120;28;20012;-56
2021/08/11 12:43:35;;;;;;;;;;;;;;;29.51;34.54;100425.69;10341585;28;19973;-55
2021/08/11 12:48:37;;;;;;;;;;;;;;;29.46;34.66;100430.25;10343260;28;19925;-56
2021/08/11 12:53:39;;;;;;;;;;;;;;;29.39;36.16;100433.13;10343151;28;20598;-54
2021/08/11 12:58:59;;;;;;;;;;;;;;;29.43;36.18;100435.13;10345483;28;19992;-56
2021/08/11 13:04:01;;;;;;;;;;;;;;;29.38;36.46;100418.59;10345649;28;20386;-56
2021/08/11 13:09:04;;;;;;;;;;;;;;;29.18;37.45;100427.19;10344602;28;20012;-56
2021/08/11 13:14:05;;;;;;;;;;;;;;;29.00;37.47;100435.59;10341935;28;20034;-56
2021/08/11 13:19:16;;;;;;;;;;;;;;;28.88;36.58;100422.72;10343980;28;20018;-57
2021/08/11 13:24:17;;;;;;;;;;;;;;;28.96;37.21;100424.28;10339442;28;20130;-57
2021/08/11 13:29:26;;;;;;;;;;;;;;;29.18;37.47;100429.09;10327548;28;19969;-56
2021/08/11 13:34:27;;;;;;;;;;;;;;;29.08;37.28;100411.38;10356748;28;19956;-57
2021/08/11 13:39:29;;;;;;;;;;;;;;;28.96;37.31;100415.22;10354389;28;19933;-56
2021/08/11 13:44:30;;;;;;;;;;;;;;;28.92;37.38;100418.44;10348198;28;20530;-56
2021/08/11 13:49:32;;;;;;;;;;;;;;;28.78;37.50;100417.06;10351076;28;19926;-57
2021/08/11 13:54:33;;;;;;;;;;;;;;;28.56;38.26;100411.31;10350801;28;19931;-57
2021/08/11 13:59:35;;;;;;;;;;;;;;;28.41;38.68;100417.28;10329526;28;19939;-56
2021/08/11 14:04:51;;;;;;;;;;;;;;;28.30;38.70;100404.41;10349309;28;19999;-56
2021/08/11 14:09:53;;;;;;;;;;;;;;;28.14;39.59;100404.06;10330740;28;20338;-54
2021/08/11 14:14:54;;;;;;;;;;;;;;;28.15;39.56;100408.47;10341564;28;19933;-55
2021/08/11 14:19:56;;;;;;;;;;;;;;;28.16;40.02;100403.81;10340864;28;20374;-57
2021/08/11 14:24:57;;;;;;;;;;;;;;;28.38;40.50;100406.81;10328303;28;20473;-55
2021/08/11 14:29:58;;;;;;;;;;;;;;;28.48;40.22;100404.31;10348744;28;20039;-55
2021/08/11 14:35:01;;;;;;;;;;;;;;;28.49;40.01;100413.34;10349167;28;20291;-56
2021/08/11 14:40:03;;;;;;;;;;;;;;;28.45;39.90;100418.47;10351000;28;20032;-55
2021/08/11 14:45:05;;;;;;;;;;;;;;;28.47;39.67;100413.59;10343680;28;19979;-56
2021/08/11 14:50:06;;;;;;;;;;;;;;;28.54;39.13;100422.53;10349015;28;19980;-59
2021/08/11 14:55:08;;;;;;;;;;;;;;;28.76;38.85;100405.50;10345341;28;19937;-55
2021/08/11 15:00:09;;;;;;;;;;;;;;;28.36;39.39;100408.97;10348157;28;20020;-56
2021/08/11 15:05:11;;;;;;;;;;;;;;;28.39;39.61;100411.22;10348796;28;20048;-56
2021/08/11 15:10:16;;;;;;;;;;;;;;;28.39;39.01;100408.47;10350740;28;19925;-56
2021/08/11 15:15:18;;;;;;;;;;;;;;;28.09;39.55;100414.88;10331961;28;19979;-57
2021/08/11 15:20:19;;;;;;;;;;;;;;;28.06;39.96;100415.34;10350075;28;19968;-55
2021/08/11 15:25:20;;;;;;;;;;;;;;;28.03;39.51;100400.25;10344793;28;20022;-56
2021/08/11 15:30:22;;;;;;;;;;;;;;;28.08;39.90;100402.25;10347025;28;19925;-56
2021/08/11 15:35:23;;;;;;;;;;;;;;;28.19;39.62;100398.72;10328291;28;19989;-56
2021/08/11 15:40:24;;;;;;;;;;;;;;;28.16;39.80;100393.69;10352642;28;20347;-57
2021/08/11 15:45:26;;;;;;;;;;;;;;;28.04;39.91;100395.59;10342835;28;20020;-56
2021/08/11 15:50:27;;;;;;;;;;;;;;;28.01;39.80;100398.81;10340628;28;19925;-56
2021/08/11 15:55:29;;;;;;;;;;;;;;;27.83;39.44;100365.00;10331878;28;19933;-56
2021/08/11 16:00:30;;;;;;;;;;;;;;;27.86;39.76;100397.34;10339438;28;19956;-56
2021/08/11 16:05:32;;;;;;;;;;;;;;;27.67;40.08;100398.47;10347052;28;19926;-56
2021/08/11 16:10:33;;;;;;;;;;;;;;;27.80;40.17;100395.53;10346808;28;20313;-56
2021/08/11 16:15:36;;;;;;;;;;;;;;;27.82;40.51;100400.78;10315535;22;20563;-63
2021/08/11 16:20:37;;;;;;;;;;;;;;;27.69;40.46;100399.06;10268988;28;19929;-63
2021/08/11 16:25:39;;;;;;;;;;;;;;;27.61;40.28;100391.19;10246421;28;19936;-63
2021/08/11 16:30:40;;;;;;;;;;;;;;;27.45;41.00;100393.50;10249232;28;19950;-62
2021/08/11 16:35:41;;;;;;;;;;;;;;;27.37;40.65;100385.66;10248523;28;19933;-62
2021/08/11 16:40:43;;;;;;;;;;;;;;;27.29;40.90;100380.47;10231436;28;19925;-62
2021/08/11 16:45:44;;;;;;;;;;;;;;;27.14;41.00;100378.13;10229475;28;20094;-62
2021/08/11 16:50:46;;;;;;;;;;;;;;;27.21;41.78;100383.53;10252053;28;20588;-62
2021/08/11 16:55:47;;;;;;;;;;;;;;;27.23;41.34;100386.84;10251588;28;19978;-62
2021/08/11 17:00:49;;;;;;;;;;;;;;;27.16;41.13;100390.50;10252890;28;20301;-64
2021/08/11 17:05:50;;;;;;;;;;;;;;;27.02;41.09;100391.72;10253374;28;20005;-62
2021/08/11 17:10:51;;;;;;;;;;;;;;;26.94;41.57;100381.13;10252233;28;20395;-63
2021/08/11 17:15:53;;;;;;;;;;;;;;;26.81;42.29;100385.69;10239547;28;20141;-64
2021/08/11 17:20:54;;;;;;;;;;;;;;;26.70;42.35;100389.16;10267339;28;19931;-64
2021/08/11 17:25:56;;;;;;;;;;;;;;;26.55;42.66;100388.69;10243887;28;19972;-65
2021/08/11 17:30:57;;;;;;;;;;;;;;;26.32;43.32;100392.91;10254360;28;19958;-64
2021/08/11 17:35:58;;;;;;;;;;;;;;;26.31;43.47;100393.94;10257365;28;19941;-62
2021/08/11 17:41:00;;;;;;;;;;;;;;;26.35;43.22;100395.16;10256906;28;19959;-63
2021/08/11 17:46:02;;;;;;;;;;;;;;;26.33;43.68;100397.28;10251771;28;19934;-63
2021/08/11 17:51:04;;;;;;;;;;;;;;;26.25;44.20;100395.66;10245910;28;19941;-62
2021/08/11 17:56:05;;;;;;;;;;;;;;;26.18;44.32;100399.53;10251816;28;19933;-62
2021/08/11 18:01:06;;;;;;;;;;;;;;;25.90;44.63;100370.78;10248508;28;20028;-62
2021/08/11 18:06:08;;;;;;;;;;;;;;;25.96;45.08;100396.31;10251168;28;20017;-63
2021/08/11 18:11:10;;;;;;;;;;;;;;;25.85;45.71;100403.31;10247558;28;19969;-62
2021/08/11 18:16:11;;;;;;;;;;;;;;;25.73;45.45;100398.59;10246881;28;20001;-62
2021/08/11 18:21:13;;;;;;;;;;;;;;;25.63;45.86;100400.13;10244481;28;20017;-63
2021/08/11 18:26:15;;;;;;;;;;;;;;;25.55;46.30;100417.53;10237340;28;20044;-61
2021/08/11 18:31:16;;;;;;;;;;;;;;;25.47;46.28;100404.19;10252127;28;20617;-65
2021/08/11 18:36:19;;;;;;;;;;;;;;;25.38;47.00;100403.59;10243493;28;20031;-64
2021/08/11 18:41:20;;;;;;;;;;;;;;;25.30;46.90;100409.31;10262726;28;19981;-62
2021/08/11 18:46:22;;;;;;;;;;;;;;;25.21;47.44;100406.78;10259797;28;19934;-62
2021/08/11 18:51:23;;;;;;;;;;;;;;;25.14;47.81;100410.59;10225036;28;19934;-64
2021/08/11 18:56:24;;;;;;;;;;;;;;;25.06;48.00;100420.69;10254669;28;20335;-62
2021/08/11 19:01:27;;;;;;;;;;;;;;;24.97;48.32;100421.97;10258655;28;20120;-63
2021/08/11 19:06:28;;;;;;;;;;;;;;;24.89;48.75;100422.19;10243696;28;19937;-62
2021/08/11 19:11:30;;;;;;;;;;;;;;;24.82;49.29;100432.28;10254272;28;19942;-62
2021/08/11 19:16:31;;;;;;;;;;;;;;;24.73;49.37;100431.69;10256518;28;20016;-63
2021/08/11 19:21:34;;;;;;;;;;;;;;;24.64;49.53;100436.50;10258482;28;19986;-63
2021/08/11 19:26:39;;;;;;;;;;;;;;;24.56;50.13;100453.03;10253158;28;19934;-62
2021/08/11 19:31:40;;;;;;;;;;;;;;;24.48;50.53;100447.78;10259494;28;19980;-62
2021/08/11 19:36:41;;;;;;;;;;;;;;;24.40;50.67;100451.56;10255082;28;19932;-62
2021/08/11 19:41:43;;;;;;;;;;;;;;;24.31;50.78;100459.09;10242849;28;19926;-62
2021/08/11 19:46:44;;;;;;;;;;;;;;;24.22;51.41;100457.63;10255911;28;20379;-62
2021/08/11 19:51:46;;;;;;;;;;;;;;;24.13;51.90;100456.16;10233938;28;19945;-62
2021/08/11 19:56:47;;;;;;;;;;;;;;;24.03;52.29;100458.47;10251562;28;20673;-62
2021/08/11 20:01:48;;;;;;;;;;;;;;;23.95;52.61;100459.50;10255775;28;20084;-62
2021/08/11 20:06:51;;;;;;;;;;;;;;;23.84;52.92;100466.34;10249253;28;20379;-62
2021/08/11 20:11:53;;;;;;;;;;;;;;;23.76;52.99;100470.06;10248742;28;19926;-62
2021/08/11 20:16:54;;;;;;;;;;;;;;;23.68;53.50;100477.59;10249412;28;20069;-62
2021/08/11 20:21:56;;;;;;;;;;;;;;;23.62;53.14;100474.63;10235390;28;19933;-62
2021/08/11 20:26:57;;;;;;;;;;;;;;;23.56;53.37;100469.19;10254622;28;20551;-61
2021/08/11 20:31:58;;;;;;;;;;;;;;;23.52;53.65;100471.47;10255595;28;19926;-62
2021/08/11 20:37:00;;;;;;;;;;;;;;;23.46;53.69;100475.00;10257295;28;20016;-62
2021/08/11 20:42:01;;;;;;;;;;;;;;;23.37;53.82;100465.34;10258722;28;20466;-62
2021/08/11 20:47:05;;;;;;;;;;;;;;;23.29;54.32;100486.22;10256093;28;19969;-61
2021/08/11 20:52:07;;;;;;;;;;;;;;;23.17;54.33;100484.28;10258207;28;19930;-62
2021/08/11 20:57:08;;;;;;;;;;;;;;;23.17;54.72;100490.53;10259739;28;19961;-62
2021/08/11 21:02:09;;;;;;;;;;;;;;;23.10;54.83;100493.22;10242966;28;19934;-62
2021/08/11 21:07:11;;;;;;;;;;;;;;;23.05;55.29;100500.25;10260790;28;19932;-62
2021/08/11 21:12:12;;;;;;;;;;;;;;;22.91;55.99;100497.47;10255069;28;19930;-62
2021/08/11 21:17:13;;;;;;;;;;;;;;;22.67;56.15;100497.91;10232232;28;19950;-62
2021/08/11 21:22:15;;;;;;;;;;;;;;;22.47;56.74;100514.84;10258593;28;19926;-61
2021/08/11 21:27:16;;;;;;;;;;;;;;;22.45;57.11;100506.09;10249616;28;19926;-63
2021/08/11 21:32:17;;;;;;;;;;;;;;;22.22;58.48;100507.09;10253333;28;20008;-64
2021/08/11 21:37:19;;;;;;;;;;;;;;;22.27;58.94;100502.97;10250179;28;19973;-61
2021/08/11 21:42:20;;;;;;;;;;;;;;;22.35;59.07;100517.28;10248011;28;19966;-63
2021/08/11 21:47:21;;;;;;;;;;;;;;;22.21;59.94;100516.25;10248943;28;20028;-60
2021/08/11 21:52:23;;;;;;;;;;;;;;;22.27;60.14;100513.81;10254972;28;19958;-63
2021/08/11 21:57:24;;;;;;;;;;;;;;;22.26;60.10;100521.09;10257742;28;19986;-61
2021/08/11 22:02:26;;;;;;;;;;;;;;;22.22;60.42;100525.25;10254202;28;20022;-62
2021/08/11 22:07:27;;;;;;;;;;;;;;;22.18;60.49;100521.25;10258517;28;20567;-62
2021/08/11 22:12:29;;;;;;;;;;;;;;;22.16;60.78;100523.28;10250039;28;20375;-63
2021/08/11 22:17:30;;;;;;;;;;;;;;;22.12;60.67;100522.84;10253282;28;20037;-65
2021/08/11 22:22:31;;;;;;;;;;;;;;;22.07;61.06;100525.31;10252199;28;19926;-63
2021/08/11 22:27:33;;;;;;;;;;;;;;;22.01;61.45;100526.06;10251262;28;20026;-62
2021/08/11 22:32:35;;;;;;;;;;;;;;;21.98;61.56;100527.28;10258642;28;20021;-62
2021/08/11 22:37:36;;;;;;;;;;;;;;;21.93;61.50;100515.34;10250812;28;20028;-62
2021/08/11 22:42:37;;;;;;;;;;;;;;;21.86;61.89;100526.94;10254429;28;19970;-62
2021/08/11 22:47:39;;;;;;;;;;;;;;;21.81;62.02;100526.69;10249545;28;19926;-62
2021/08/11 22:52:40;;;;;;;;;;;;;;;21.79;62.18;100525.19;10252348;28;20009;-61
2021/08/11 22:57:41;;;;;;;;;;;;;;;21.69;62.33;100528.19;10254458;28;19954;-61
2021/08/11 23:02:43;;;;;;;;;;;;;;;21.69;62.36;100529.06;10255292;28;20021;-62
2021/08/11 23:07:44;;;;;;;;;;;;;;;21.64;62.62;100531.47;10254791;28;19981;-62
2021/08/11 23:12:46;;;;;;;;;;;;;;;21.56;62.81;100528.03;10252892;28;20444;-61
2021/08/11 23:17:48;;;;;;;;;;;;;;;21.54;63.07;100534.50;10254932;28;20408;-61
2021/08/11 23:22:52;;;;;;;;;;;;;;;21.49;63.14;100536.06;10252894;28;19930;-62
2021/08/11 23:27:54;;;;;;;;;;;;;;;21.45;63.24;100527.47;10248887;28;19933;-62
2021/08/11 23:32:56;;;;;;;;;;;;;;;21.39;63.40;100517.38;10252603;28;19999;-62
2021/08/11 23:37:57;;;;;;;;;;;;;;;21.34;63.69;100519.81;10238532;28;19961;-61
2021/08/11 23:42:58;;;;;;;;;;;;;;;21.28;63.90;100520.56;10251472;28;20448;-62
2021/08/11 23:48:00;;;;;;;;;;;;;;;21.23;63.97;100518.44;10248323;28;19977;-62
2021/08/11 23:53:01;;;;;;;;;;;;;;;21.17;64.16;100520.00;10250423;28;20149;-62
2021/08/11 23:58:02;;;;;;;;;;;;;;;21.14;64.29;100523.09;10249934;28;20474;-62
